createdAt,value
2019-05-18T00:01:17.383Z,12.70
2019-05-18T00:03:45.995Z,12.70
2019-05-18T00:06:14.756Z,12.60
2019-05-18T00:08:43.442Z,12.60
2019-05-18T00:11:12.185Z,12.50
2019-05-18T00:13:41.521Z,12.50
2019-05-18T00:16:10.473Z,12.40
2019-05-18T00:18:39.207Z,12.40
2019-05-18T00:21:07.943Z,12.40
2019-05-18T00:23:36.557Z,12.40
2019-05-18T00:26:05.212Z,12.40
2019-05-18T00:28:33.874Z,12.30
2019-05-18T00:31:02.558Z,12.30
2019-05-18T00:33:31.254Z,12.20
2019-05-18T00:35:59.980Z,12.20
2019-05-18T00:38:28.641Z,12.20
2019-05-18T00:40:57.257Z,12.10
2019-05-18T00:43:25.918Z,12.10
2019-05-18T00:45:54.532Z,12.00
2019-05-18T00:48:23.344Z,12.00
2019-05-18T00:50:51.958Z,12.00
2019-05-18T00:53:20.612Z,11.90
2019-05-18T00:55:49.402Z,11.90
2019-05-18T00:58:18.062Z,11.90
2019-05-18T01:00:46.682Z,11.80
2019-05-18T01:03:15.351Z,11.80
2019-05-18T01:05:43.962Z,11.80
2019-05-18T01:08:12.621Z,11.70
2019-05-18T01:10:42.874Z,11.70
2019-05-18T01:13:12.149Z,11.70
2019-05-18T01:15:40.767Z,11.70
2019-05-18T01:18:09.523Z,11.70
2019-05-18T01:20:38.211Z,11.60
2019-05-18T01:23:06.953Z,11.60
2019-05-18T01:25:35.566Z,11.60
2019-05-18T01:28:04.227Z,11.50
2019-05-18T01:30:32.917Z,11.50
2019-05-18T01:33:01.585Z,11.50
2019-05-18T01:35:30.191Z,11.50
2019-05-18T01:37:58.868Z,11.50
2019-05-18T01:40:27.473Z,11.40
2019-05-18T01:42:56.140Z,11.30
2019-05-18T01:45:24.866Z,11.30
2019-05-18T01:47:53.530Z,11.20
2019-05-18T01:50:22.145Z,11.20
2019-05-18T01:52:51.192Z,11.10
2019-05-18T01:55:19.801Z,11.10
2019-05-18T01:57:48.413Z,11.10
2019-05-18T02:00:17.526Z,11.10
2019-05-18T02:02:46.140Z,11.10
2019-05-18T02:05:15.334Z,11.10
2019-05-18T02:07:43.955Z,11.10
2019-05-18T02:10:13.921Z,11.00
2019-05-18T02:12:42.567Z,11.00
2019-05-18T02:15:12.151Z,11.00
2019-05-18T02:17:40.778Z,11.00
2019-05-18T02:20:10.024Z,10.90
2019-05-18T02:22:38.635Z,10.90
2019-05-18T02:25:08.714Z,10.90
2019-05-18T02:27:37.341Z,10.80
2019-05-18T02:30:08.183Z,10.80
2019-05-18T02:32:36.801Z,10.70
2019-05-18T02:35:07.312Z,10.70
2019-05-18T02:37:35.926Z,10.70
2019-05-18T02:40:06.508Z,10.70
2019-05-18T02:42:35.399Z,10.60
2019-05-18T02:45:08.581Z,10.60
2019-05-18T02:47:37.277Z,10.60
2019-05-18T02:50:08.026Z,10.50
2019-05-18T02:52:36.780Z,10.50
2019-05-18T02:55:07.255Z,10.60
2019-05-18T02:57:35.945Z,10.50
2019-05-18T03:00:09.615Z,10.50
2019-05-18T03:02:38.281Z,10.50
2019-05-18T03:05:08.372Z,10.50
2019-05-18T03:07:37.092Z,10.50
2019-05-18T03:10:07.521Z,10.50
2019-05-18T03:12:36.181Z,10.50
2019-05-18T03:15:06.638Z,10.50
2019-05-18T03:17:35.304Z,10.50
2019-05-18T03:20:05.985Z,10.40
2019-05-18T03:22:34.598Z,10.40
2019-05-18T03:25:05.387Z,10.40
2019-05-18T03:27:34.005Z,10.40
2019-05-18T03:30:06.871Z,10.40
2019-05-18T03:32:35.537Z,10.40
2019-05-18T03:35:04.709Z,10.30
2019-05-18T03:37:33.450Z,10.40
2019-05-18T03:40:03.625Z,10.40
2019-05-18T03:42:32.246Z,10.30
2019-05-18T03:45:01.335Z,10.40
2019-05-18T03:47:29.951Z,10.40
2019-05-18T03:49:58.569Z,10.40
2019-05-18T03:52:27.296Z,10.40
2019-05-18T03:54:56.025Z,10.40
2019-05-18T03:57:24.693Z,10.50
2019-05-18T03:59:53.360Z,10.50
2019-05-18T04:02:21.972Z,10.50
2019-05-18T04:04:50.642Z,10.60
2019-05-18T04:07:19.258Z,10.60
2019-05-18T04:09:47.922Z,10.70
2019-05-18T04:12:16.573Z,10.80
2019-05-18T04:14:45.238Z,10.90
2019-05-18T04:17:13.867Z,11.00
2019-05-18T04:19:46.767Z,11.00
2019-05-18T04:22:12.983Z,11.10
2019-05-18T04:24:41.645Z,11.10
2019-05-18T04:27:10.276Z,11.10
2019-05-18T04:29:39.116Z,11.20
2019-05-18T04:32:07.729Z,11.30
2019-05-18T04:34:36.489Z,11.30
2019-05-18T04:37:05.113Z,11.40
2019-05-18T04:39:33.788Z,11.40
2019-05-18T04:42:02.632Z,11.60
2019-05-18T04:44:31.260Z,11.60
2019-05-18T04:46:59.931Z,11.60
2019-05-18T04:49:28.707Z,11.70
2019-05-18T04:51:57.378Z,11.80
2019-05-18T04:54:25.996Z,11.80
2019-05-18T04:56:54.661Z,11.90
2019-05-18T04:59:23.284Z,12.00
2019-05-18T05:01:52.048Z,12.00
2019-05-18T05:04:20.824Z,12.00
2019-05-18T05:06:49.499Z,12.10
2019-05-18T05:09:18.115Z,12.10
2019-05-18T05:11:46.783Z,12.20
2019-05-18T05:14:15.401Z,12.20
2019-05-18T05:16:44.074Z,12.30
2019-05-18T05:19:12.686Z,12.30
2019-05-18T05:21:41.346Z,12.50
2019-05-18T05:24:10.142Z,12.50
2019-05-18T05:26:39.551Z,12.50
2019-05-18T05:29:08.711Z,12.60
2019-05-18T05:31:37.383Z,12.70
2019-05-18T05:34:06.001Z,12.80
2019-05-18T05:36:34.666Z,12.80
2019-05-18T05:39:05.181Z,12.90
2019-05-18T05:41:33.863Z,13.00
2019-05-18T05:44:02.707Z,13.10
2019-05-18T05:46:31.358Z,13.10
2019-05-18T05:49:00.038Z,13.30
2019-05-18T05:51:28.658Z,13.40
2019-05-18T05:53:57.315Z,13.40
2019-05-18T05:56:25.979Z,13.50
2019-05-18T05:58:54.606Z,13.60
2019-05-18T06:01:23.275Z,13.80
2019-05-18T06:03:51.982Z,13.80
2019-05-18T06:06:23.085Z,13.90
2019-05-18T06:08:51.172Z,13.90
2019-05-18T06:11:19.792Z,14.10
2019-05-18T06:13:48.462Z,14.10
2019-05-18T06:16:17.128Z,14.20
2019-05-18T06:18:45.938Z,14.40
2019-05-18T06:21:14.715Z,14.50
2019-05-18T06:23:43.378Z,14.60
2019-05-18T06:26:12.003Z,14.70
2019-05-18T06:28:40.769Z,14.80
2019-05-18T06:31:09.392Z,14.80
2019-05-18T06:33:38.067Z,14.90
2019-05-18T06:36:06.717Z,15.10
2019-05-18T06:38:35.389Z,15.10
2019-05-18T06:41:04.010Z,15.10
2019-05-18T06:43:32.683Z,15.20
2019-05-18T06:46:01.349Z,15.30
2019-05-18T06:48:29.964Z,15.40
2019-05-18T06:51:07.114Z,15.50
2019-05-18T06:53:29.018Z,15.60
2019-05-18T06:55:57.977Z,15.60
2019-05-18T06:58:27.451Z,15.70
2019-05-18T07:00:56.141Z,15.80
2019-05-18T07:03:24.973Z,15.90
2019-05-18T07:05:53.629Z,16.00
2019-05-18T07:08:22.250Z,16.20
2019-05-18T07:10:50.913Z,16.30
2019-05-18T07:13:19.537Z,16.50
2019-05-18T07:15:49.817Z,16.50
2019-05-18T07:18:18.481Z,16.60
2019-05-18T07:20:47.145Z,16.70
2019-05-18T07:23:15.852Z,16.80
2019-05-18T07:25:44.468Z,16.90
2019-05-18T07:28:13.131Z,17.00
2019-05-18T07:30:41.747Z,17.10
2019-05-18T07:33:10.424Z,17.20
2019-05-18T07:35:39.308Z,17.30
2019-05-18T07:38:07.923Z,17.40
2019-05-18T07:40:36.588Z,17.40
2019-05-18T07:43:05.201Z,17.50
2019-05-18T07:45:33.861Z,17.60
2019-05-18T07:48:02.617Z,17.70
2019-05-18T07:50:31.243Z,17.80
2019-05-18T07:53:00.181Z,17.80
2019-05-18T07:55:28.875Z,17.90
2019-05-18T07:57:57.490Z,18.00
2019-05-18T08:00:26.251Z,18.00
2019-05-18T08:02:54.868Z,18.20
2019-05-18T08:05:23.538Z,18.20
2019-05-18T08:07:52.149Z,18.40
2019-05-18T08:10:33.359Z,18.50
2019-05-18T08:13:02.001Z,18.50
2019-05-18T08:15:30.855Z,18.60
2019-05-18T08:17:59.465Z,18.60
2019-05-18T08:20:28.125Z,18.70
2019-05-18T08:22:56.798Z,18.80
2019-05-18T08:25:25.473Z,19.00
2019-05-18T08:27:54.087Z,18.90
2019-05-18T08:30:22.768Z,18.90
2019-05-18T08:32:51.424Z,19.10
2019-05-18T08:35:20.039Z,19.20
2019-05-18T08:37:48.698Z,19.20
2019-05-18T08:40:17.653Z,19.30
2019-05-18T08:42:46.408Z,19.40
2019-05-18T08:45:16.153Z,19.40
2019-05-18T08:47:44.890Z,19.50
2019-05-18T08:50:13.896Z,19.50
2019-05-18T08:52:42.625Z,19.60
2019-05-18T08:55:11.779Z,19.70
2019-05-18T08:57:40.443Z,19.80
2019-05-18T09:00:11.360Z,19.90
2019-05-18T09:02:40.197Z,19.90
2019-05-18T09:05:09.823Z,20.00
2019-05-18T09:07:38.492Z,20.10
2019-05-18T09:10:08.319Z,20.20
2019-05-18T09:12:36.967Z,20.20
2019-05-18T09:15:10.189Z,20.30
2019-05-18T09:17:38.853Z,20.40
2019-05-18T09:20:08.274Z,20.60
2019-05-18T09:22:37.054Z,20.70
2019-05-18T09:25:08.126Z,20.80
2019-05-18T09:27:36.785Z,20.80
2019-05-18T09:30:07.311Z,20.80
2019-05-18T09:32:36.103Z,20.80
2019-05-18T09:35:07.734Z,20.90
2019-05-18T09:37:36.395Z,20.80
2019-05-18T09:40:07.987Z,20.90
2019-05-18T09:42:36.790Z,21.00
2019-05-18T09:45:08.207Z,21.20
2019-05-18T09:47:36.920Z,21.40
2019-05-18T09:50:06.745Z,21.40
2019-05-18T09:52:44.753Z,21.40
2019-05-18T09:55:07.876Z,21.30
2019-05-18T09:57:36.581Z,21.50
2019-05-18T10:00:10.791Z,21.80
2019-05-18T10:02:39.688Z,21.70
2019-05-18T10:05:08.644Z,21.70
2019-05-18T10:07:37.382Z,21.90
2019-05-18T10:10:08.208Z,22.00
2019-05-18T10:12:37.041Z,22.00
2019-05-18T10:15:07.469Z,22.00
2019-05-18T10:17:36.131Z,22.00
2019-05-18T10:20:09.559Z,22.10
2019-05-18T10:22:51.226Z,22.40
2019-05-18T10:25:09.445Z,22.50
2019-05-18T10:27:38.120Z,22.50
2019-05-18T10:30:08.309Z,22.50
2019-05-18T10:32:36.927Z,22.70
2019-05-18T10:35:09.089Z,22.90
2019-05-18T10:37:37.703Z,22.60
2019-05-18T10:40:08.924Z,22.50
2019-05-18T10:42:37.612Z,22.30
2019-05-18T10:45:08.075Z,22.40
2019-05-18T10:47:36.834Z,22.50
2019-05-18T10:50:07.874Z,22.70
2019-05-18T10:52:36.529Z,22.80
2019-05-18T10:55:09.029Z,23.00
2019-05-18T10:57:37.757Z,22.90
2019-05-18T11:00:11.053Z,22.90
2019-05-18T11:02:39.744Z,23.00
2019-05-18T11:05:09.716Z,23.30
2019-05-18T11:07:38.451Z,23.40
2019-05-18T11:10:09.985Z,23.40
2019-05-18T11:12:38.740Z,23.50
2019-05-18T11:15:08.811Z,23.60
2019-05-18T11:17:37.440Z,23.70
2019-05-18T11:20:09.996Z,23.80
2019-05-18T11:22:38.895Z,24.10
2019-05-18T11:25:08.967Z,24.30
2019-05-18T11:27:37.720Z,24.40
2019-05-18T11:30:08.615Z,24.30
2019-05-18T11:32:38.059Z,24.10
2019-05-18T11:35:08.204Z,24.00
2019-05-18T11:37:36.931Z,24.20
2019-05-18T11:40:07.553Z,24.40
2019-05-18T11:42:36.218Z,24.60
2019-05-18T11:45:10.828Z,24.70
2019-05-18T11:47:39.717Z,24.60
2019-05-18T11:50:09.621Z,24.50
2019-05-18T11:52:38.527Z,24.70
2019-05-18T11:55:09.740Z,24.80
2019-05-18T11:57:38.407Z,24.80
2019-05-18T12:00:12.675Z,24.80
2019-05-18T12:02:41.350Z,25.00
2019-05-18T12:05:10.676Z,25.20
2019-05-18T12:07:39.284Z,25.20
2019-05-18T12:10:10.244Z,24.90
2019-05-18T12:12:39.049Z,25.00
2019-05-18T12:15:10.665Z,25.30
2019-05-18T12:17:39.318Z,25.20
2019-05-18T12:20:08.466Z,25.30
2019-05-18T12:22:37.368Z,25.00
2019-05-18T12:25:09.891Z,25.00
2019-05-18T12:27:38.774Z,25.10
2019-05-18T12:30:09.308Z,25.30
2019-05-18T12:32:38.111Z,25.50
2019-05-18T12:35:09.300Z,25.60
2019-05-18T12:37:38.033Z,25.80
2019-05-18T12:40:08.682Z,25.80
2019-05-18T12:42:37.505Z,25.80
2019-05-18T12:45:07.379Z,25.80
2019-05-18T12:47:36.108Z,26.00
2019-05-18T12:50:07.498Z,26.10
2019-05-18T12:52:36.268Z,26.00
2019-05-18T12:55:08.513Z,26.00
2019-05-18T12:57:37.527Z,25.90
2019-05-18T13:00:12.420Z,26.10
2019-05-18T13:02:41.145Z,26.10
2019-05-18T13:05:10.664Z,26.40
2019-05-18T13:07:39.330Z,26.50
2019-05-18T13:10:09.158Z,26.80
2019-05-18T13:12:37.986Z,27.00
2019-05-18T13:15:11.554Z,26.60
2019-05-18T13:17:40.431Z,27.30
2019-05-18T13:20:11.302Z,26.40
2019-05-18T13:22:39.985Z,26.20
2019-05-18T13:25:10.241Z,26.60
2019-05-18T13:27:40.145Z,28.90
2019-05-18T13:30:11.432Z,30.70
2019-05-18T13:32:40.357Z,28.90
2019-05-18T13:35:09.635Z,28.90
2019-05-18T13:37:38.285Z,29.00
2019-05-18T13:40:08.000Z,27.90
2019-05-18T13:42:36.612Z,27.80
2019-05-18T13:45:07.891Z,30.60
2019-05-18T13:47:36.552Z,32.00
2019-05-18T13:50:07.448Z,30.40
2019-05-18T13:52:36.263Z,29.60
2019-05-18T13:55:07.222Z,31.50
2019-05-18T13:57:36.261Z,32.50
2019-05-18T14:00:07.482Z,32.40
2019-05-18T14:02:36.088Z,31.40
2019-05-18T14:05:06.245Z,32.70
2019-05-18T14:07:35.128Z,35.90
2019-05-18T14:10:06.615Z,37.00
2019-05-18T14:12:35.750Z,38.80
2019-05-18T14:15:06.328Z,40.70
2019-05-18T14:17:34.997Z,41.70
2019-05-18T14:20:04.620Z,41.80
2019-05-18T14:22:33.277Z,42.20
2019-05-18T14:25:10.557Z,42.60
2019-05-18T14:27:32.558Z,41.90
2019-05-18T14:30:01.475Z,42.60
2019-05-18T14:32:30.201Z,43.60
2019-05-18T14:34:58.888Z,43.30
2019-05-18T14:37:27.554Z,43.70
2019-05-18T14:39:56.164Z,44.10
2019-05-18T14:42:24.847Z,43.20
2019-05-18T14:44:53.462Z,43.70
2019-05-18T14:47:22.097Z,42.90
2019-05-18T14:49:50.902Z,43.70
2019-05-18T14:52:19.566Z,44.00
2019-05-18T14:54:48.178Z,42.90
2019-05-18T14:57:16.877Z,43.50
2019-05-18T14:59:45.560Z,42.70
2019-05-18T15:02:14.245Z,40.60
2019-05-18T15:04:42.901Z,41.90
2019-05-18T15:07:11.565Z,42.80
2019-05-18T15:09:40.193Z,42.80
2019-05-18T15:12:08.885Z,41.20
2019-05-18T15:14:37.621Z,41.20
2019-05-18T15:17:06.305Z,40.40
2019-05-18T15:19:35.031Z,41.20
2019-05-18T15:22:04.025Z,41.80
2019-05-18T15:24:32.714Z,40.70
2019-05-18T15:27:01.329Z,40.40
2019-05-18T15:29:30.023Z,40.40
2019-05-18T15:31:58.639Z,41.50
2019-05-18T15:34:27.479Z,41.20
2019-05-18T15:36:56.137Z,41.50
2019-05-18T15:39:24.785Z,42.00
2019-05-18T15:41:53.457Z,41.60
2019-05-18T15:44:22.210Z,42.20
2019-05-18T15:46:50.942Z,41.50
2019-05-18T15:49:19.700Z,40.20
2019-05-18T15:51:48.367Z,40.10
2019-05-18T15:54:17.008Z,40.80
2019-05-18T15:56:45.680Z,41.60
2019-05-18T15:59:14.374Z,40.30
2019-05-18T16:01:43.008Z,40.00
2019-05-18T16:04:11.737Z,38.70
2019-05-18T16:06:40.596Z,37.60
2019-05-18T16:09:09.267Z,36.80
2019-05-18T16:11:37.923Z,37.50
2019-05-18T16:14:06.783Z,37.90
2019-05-18T16:16:35.722Z,38.10
2019-05-18T16:19:04.394Z,38.60
2019-05-18T16:21:33.059Z,38.90
2019-05-18T16:24:01.795Z,38.90
2019-05-18T16:26:30.536Z,39.30
2019-05-18T16:28:59.214Z,39.90
2019-05-18T16:31:28.043Z,40.20
2019-05-18T16:33:56.659Z,39.60
2019-05-18T16:36:25.322Z,40.00
2019-05-18T16:38:53.942Z,40.20
2019-05-18T16:41:22.602Z,40.10
2019-05-18T16:43:51.236Z,39.80
2019-05-18T16:46:19.989Z,40.10
2019-05-18T16:48:48.644Z,40.30
2019-05-18T16:51:17.363Z,40.40
2019-05-18T16:53:49.941Z,40.40
2019-05-18T16:56:16.436Z,39.40
2019-05-18T16:58:45.155Z,38.20
2019-05-18T17:01:13.841Z,38.00
2019-05-18T17:03:42.497Z,36.20
2019-05-18T17:06:11.178Z,36.30
2019-05-18T17:08:39.851Z,37.40
2019-05-18T17:11:08.504Z,37.20
2019-05-18T17:13:37.206Z,36.50
2019-05-18T17:16:05.887Z,35.60
2019-05-18T17:18:34.551Z,34.90
2019-05-18T17:21:03.535Z,34.20
2019-05-18T17:23:32.311Z,33.50
2019-05-18T17:26:00.922Z,32.90
2019-05-18T17:28:29.684Z,32.00
2019-05-18T17:30:58.347Z,32.00
2019-05-18T17:33:26.966Z,31.30
2019-05-18T17:36:00.184Z,31.30
2019-05-18T17:38:25.967Z,31.40
2019-05-18T17:40:54.666Z,31.00
2019-05-18T17:43:23.355Z,30.00
2019-05-18T17:45:52.089Z,29.80
2019-05-18T17:48:20.708Z,29.60
2019-05-18T17:50:49.375Z,29.20
2019-05-18T17:53:17.990Z,29.10
2019-05-18T17:55:46.663Z,28.80
2019-05-18T17:58:15.349Z,29.20
2019-05-18T18:00:44.183Z,29.20
2019-05-18T18:03:12.927Z,29.40
2019-05-18T18:05:41.610Z,29.30
2019-05-18T18:08:10.299Z,29.40
2019-05-18T18:10:38.960Z,29.20
2019-05-18T18:13:09.544Z,29.00
2019-05-18T18:15:37.987Z,28.90
2019-05-18T18:18:06.715Z,29.10
2019-05-18T18:20:35.331Z,29.10
2019-05-18T18:23:03.995Z,28.80
2019-05-18T18:25:32.933Z,28.50
2019-05-18T18:28:01.601Z,28.40
2019-05-18T18:30:30.263Z,28.10
2019-05-18T18:32:58.878Z,28.00
2019-05-18T18:35:27.591Z,28.00
2019-05-18T18:37:56.214Z,28.00
2019-05-18T18:40:24.882Z,27.70
2019-05-18T18:42:53.646Z,27.60
2019-05-18T18:45:22.509Z,27.20
2019-05-18T18:47:51.324Z,26.90
2019-05-18T18:50:20.021Z,26.90
2019-05-18T18:52:48.683Z,26.50
2019-05-18T18:55:17.300Z,26.40
2019-05-18T18:57:46.083Z,26.00
2019-05-18T19:00:17.276Z,25.70
2019-05-18T19:02:46.008Z,25.70
2019-05-18T19:05:15.264Z,25.60
2019-05-18T19:07:43.996Z,25.50
2019-05-18T19:10:12.984Z,25.40
2019-05-18T19:12:41.604Z,25.40
2019-05-18T19:15:11.206Z,24.90
2019-05-18T19:17:39.821Z,24.80
2019-05-18T19:20:08.957Z,24.60
2019-05-18T19:22:37.574Z,24.30
2019-05-18T19:25:06.869Z,24.20
2019-05-18T19:27:35.525Z,23.80
2019-05-18T19:30:09.805Z,23.60
2019-05-18T19:32:36.585Z,23.70
2019-05-18T19:35:07.897Z,23.30
2019-05-18T19:37:36.512Z,23.20
2019-05-18T19:40:09.060Z,23.10
2019-05-18T19:42:37.797Z,23.00
2019-05-18T19:45:09.952Z,23.00
2019-05-18T19:47:38.614Z,22.90
2019-05-18T19:50:07.732Z,22.80
2019-05-18T19:52:40.119Z,22.70
2019-05-18T19:55:10.175Z,22.50
2019-05-18T19:57:38.922Z,22.50
2019-05-18T20:00:09.119Z,22.30
2019-05-18T20:02:37.846Z,22.20
2019-05-18T20:05:10.115Z,21.90
2019-05-18T20:07:38.780Z,21.90
2019-05-18T20:10:08.517Z,21.70
2019-05-18T20:12:37.279Z,21.50
2019-05-18T20:15:09.409Z,21.40
2019-05-18T20:17:37.210Z,21.20
2019-05-18T20:20:09.231Z,21.20
2019-05-18T20:22:38.422Z,21.00
2019-05-18T20:25:07.153Z,20.70
2019-05-18T20:27:35.965Z,20.70
2019-05-18T20:30:08.043Z,20.50
2019-05-18T20:32:36.688Z,20.50
2019-05-18T20:35:05.827Z,20.30
2019-05-18T20:37:34.511Z,20.10
2019-05-18T20:40:04.211Z,20.00
2019-05-18T20:42:32.826Z,20.00
2019-05-18T20:45:01.492Z,19.90
2019-05-18T20:47:30.134Z,20.00
2019-05-18T20:49:58.931Z,19.90
2019-05-18T20:52:27.547Z,19.70
2019-05-18T20:54:56.209Z,19.70
2019-05-18T20:57:24.831Z,19.50
2019-05-18T20:59:53.484Z,19.40
2019-05-18T21:02:22.102Z,19.40
2019-05-18T21:04:50.764Z,19.20
2019-05-18T21:07:19.380Z,19.20
2019-05-18T21:09:48.043Z,19.20
2019-05-18T21:12:16.701Z,19.00
2019-05-18T21:14:45.370Z,18.90
2019-05-18T21:17:13.993Z,18.80
2019-05-18T21:19:42.734Z,18.70
2019-05-18T21:22:11.349Z,18.60
2019-05-18T21:24:39.965Z,18.60
2019-05-18T21:27:08.623Z,18.50
2019-05-18T21:29:37.243Z,18.50
2019-05-18T21:32:05.905Z,18.30
2019-05-18T21:34:34.566Z,18.30
2019-05-18T21:37:03.227Z,18.10
2019-05-18T21:39:31.886Z,18.00
2019-05-18T21:42:00.523Z,18.00
2019-05-18T21:44:29.208Z,18.00
2019-05-18T21:46:57.877Z,17.90
2019-05-18T21:49:26.491Z,17.80
2019-05-18T21:51:55.150Z,17.80
2019-05-18T21:54:23.767Z,17.70
2019-05-18T21:56:52.424Z,17.60
2019-05-18T21:59:21.115Z,17.70
2019-05-18T22:01:49.810Z,17.60
2019-05-18T22:04:18.469Z,17.50
2019-05-18T22:06:47.182Z,17.30
2019-05-18T22:09:15.843Z,17.30
2019-05-18T22:11:44.517Z,17.20
2019-05-18T22:14:13.125Z,17.20
2019-05-18T22:16:41.791Z,17.20
2019-05-18T22:19:10.406Z,17.20
2019-05-18T22:21:39.071Z,17.10
2019-05-18T22:24:07.685Z,17.10
2019-05-18T22:26:36.351Z,17.00
2019-05-18T22:29:05.034Z,17.00
2019-05-18T22:31:33.777Z,16.90
2019-05-18T22:34:02.462Z,16.70
2019-05-18T22:36:31.158Z,16.70
2019-05-18T22:38:59.773Z,16.60
2019-05-18T22:41:28.430Z,16.50
2019-05-18T22:43:57.041Z,16.50
2019-05-18T22:46:25.708Z,16.40
2019-05-18T22:48:54.434Z,16.20
2019-05-18T22:51:23.099Z,16.20
2019-05-18T22:53:51.761Z,16.20
2019-05-18T22:56:20.426Z,16.20
2019-05-18T22:58:49.030Z,16.10
2019-05-18T23:01:17.870Z,16.10
2019-05-18T23:03:46.554Z,15.90
2019-05-18T23:06:15.212Z,15.80
2019-05-18T23:08:43.877Z,15.90
2019-05-18T23:11:12.509Z,15.90
2019-05-18T23:13:41.731Z,15.80
2019-05-18T23:16:10.348Z,15.80
2019-05-18T23:18:39.011Z,15.80
2019-05-18T23:21:07.676Z,15.70
2019-05-18T23:23:36.363Z,15.70
2019-05-18T23:26:05.096Z,15.60
2019-05-18T23:28:33.706Z,15.60
2019-05-18T23:31:02.367Z,15.60
2019-05-18T23:33:30.998Z,15.50
2019-05-18T23:35:59.653Z,15.40
2019-05-18T23:38:28.313Z,15.40
2019-05-18T23:40:56.997Z,15.40
2019-05-18T23:43:25.659Z,15.30
2019-05-18T23:45:54.268Z,15.20
2019-05-18T23:48:22.928Z,15.20
2019-05-18T23:50:51.610Z,15.20
2019-05-18T23:53:20.335Z,15.00
2019-05-18T23:55:48.961Z,14.90
2019-05-18T23:58:17.624Z,14.90
